sensor_id;sensor_type;location;lat;lon;timestamp;P1;durP1;ratioP1;P2;durP2;ratioP2
27804;SDS011;15183;51.350;11.102;2023-05-07T00:01:09;18.02;;;14.23;;
27804;SDS011;15183;51.350;11.102;2023-05-07T00:03:36;19.05;;;14.63;;
27804;SDS011;15183;51.350;11.102;2023-05-07T00:06:03;17.38;;;13.05;;
27804;SDS011;15183;51.350;11.102;2023-05-07T00:08:30;15.95;;;12.18;;
27804;SDS011;15183;51.350;11.102;2023-05-07T00:10:56;15.48;;;10.82;;
27804;SDS011;15183;51.350;11.102;2023-05-07T00:13:22;17.20;;;13.25;;
27804;SDS011;15183;51.350;11.102;2023-05-07T00:15:49;16.95;;;12.73;;
27804;SDS011;15183;51.350;11.102;2023-05-07T00:18:15;15.00;;;11.35;;
27804;SDS011;15183;51.350;11.102;2023-05-07T00:20:42;20.92;;;12.98;;
27804;SDS011;15183;51.350;11.102;2023-05-07T00:23:08;15.25;;;11.70;;
27804;SDS011;15183;51.350;11.102;2023-05-07T00:25:35;16.70;;;12.15;;
27804;SDS011;15183;51.350;11.102;2023-05-07T00:28:01;16.95;;;12.68;;
27804;SDS011;15183;51.350;11.102;2023-05-07T00:30:29;15.00;;;10.93;;
27804;SDS011;15183;51.350;11.102;2023-05-07T00:32:55;15.60;;;10.85;;
27804;SDS011;15183;51.350;11.102;2023-05-07T00:35:22;13.80;;;11.07;;
27804;SDS011;15183;51.350;11.102;2023-05-07T00:37:48;13.48;;;10.50;;
27804;SDS011;15183;51.350;11.102;2023-05-07T00:40:15;14.40;;;11.00;;
27804;SDS011;15183;51.350;11.102;2023-05-07T00:42:41;13.60;;;10.55;;
27804;SDS011;15183;51.350;11.102;2023-05-07T00:45:13;15.60;;;11.55;;
27804;SDS011;15183;51.350;11.102;2023-05-07T00:47:40;13.70;;;10.38;;
27804;SDS011;15183;51.350;11.102;2023-05-07T00:50:07;14.02;;;10.48;;
27804;SDS011;15183;51.350;11.102;2023-05-07T00:52:36;13.90;;;10.73;;
27804;SDS011;15183;51.350;11.102;2023-05-07T00:55:04;13.10;;;10.27;;
27804;SDS011;15183;51.350;11.102;2023-05-07T00:57:39;15.63;;;10.90;;
27804;SDS011;15183;51.350;11.102;2023-05-07T01:00:07;14.18;;;9.98;;
27804;SDS011;15183;51.350;11.102;2023-05-07T01:02:35;13.10;;;9.82;;
27804;SDS011;15183;51.350;11.102;2023-05-07T01:05:03;13.40;;;10.05;;
27804;SDS011;15183;51.350;11.102;2023-05-07T01:07:33;12.55;;;9.77;;
27804;SDS011;15183;51.350;11.102;2023-05-07T01:10:02;12.05;;;9.52;;
27804;SDS011;15183;51.350;11.102;2023-05-07T01:12:30;12.98;;;9.98;;
27804;SDS011;15183;51.350;11.102;2023-05-07T01:14:57;14.73;;;9.98;;
27804;SDS011;15183;51.350;11.102;2023-05-07T01:17:24;11.73;;;8.98;;
27804;SDS011;15183;51.350;11.102;2023-05-07T01:19:50;12.40;;;9.70;;
27804;SDS011;15183;51.350;11.102;2023-05-07T01:22:31;16.60;;;9.68;;
27804;SDS011;15183;51.350;11.102;2023-05-07T01:25:03;13.75;;;9.77;;
27804;SDS011;15183;51.350;11.102;2023-05-07T01:27:31;11.57;;;9.35;;
27804;SDS011;15183;51.350;11.102;2023-05-07T01:29:59;13.90;;;9.77;;
27804;SDS011;15183;51.350;11.102;2023-05-07T01:32:29;12.98;;;9.57;;
27804;SDS011;15183;51.350;11.102;2023-05-07T01:35:05;13.95;;;10.40;;
27804;SDS011;15183;51.350;11.102;2023-05-07T01:37:36;13.68;;;9.73;;
27804;SDS011;15183;51.350;11.102;2023-05-07T01:40:05;13.52;;;10.25;;
27804;SDS011;15183;51.350;11.102;2023-05-07T01:42:33;13.48;;;10.57;;
27804;SDS011;15183;51.350;11.102;2023-05-07T01:44:59;11.68;;;9.48;;
27804;SDS011;15183;51.350;11.102;2023-05-07T01:47:26;11.35;;;8.85;;
27804;SDS011;15183;51.350;11.102;2023-05-07T01:49:53;12.27;;;9.20;;
27804;SDS011;15183;51.350;11.102;2023-05-07T01:52:20;13.30;;;9.63;;
27804;SDS011;15183;51.350;11.102;2023-05-07T01:54:46;11.75;;;9.15;;
27804;SDS011;15183;51.350;11.102;2023-05-07T01:57:13;11.43;;;9.23;;
27804;SDS011;15183;51.350;11.102;2023-05-07T01:59:39;12.52;;;9.52;;
27804;SDS011;15183;51.350;11.102;2023-05-07T02:02:06;12.02;;;9.48;;
27804;SDS011;15183;51.350;11.102;2023-05-07T02:04:32;13.13;;;9.50;;
27804;SDS011;15183;51.350;11.102;2023-05-07T02:06:58;12.23;;;9.18;;
27804;SDS011;15183;51.350;11.102;2023-05-07T02:09:25;12.57;;;9.05;;
27804;SDS011;15183;51.350;11.102;2023-05-07T02:11:51;12.18;;;9.40;;
27804;SDS011;15183;51.350;11.102;2023-05-07T02:14:18;14.23;;;10.15;;
27804;SDS011;15183;51.350;11.102;2023-05-07T02:16:45;13.73;;;10.27;;
27804;SDS011;15183;51.350;11.102;2023-05-07T02:19:12;15.88;;;10.75;;
27804;SDS011;15183;51.350;11.102;2023-05-07T02:21:38;13.23;;;10.13;;
27804;SDS011;15183;51.350;11.102;2023-05-07T02:24:05;14.23;;;10.70;;
27804;SDS011;15183;51.350;11.102;2023-05-07T02:26:31;13.07;;;10.98;;
27804;SDS011;15183;51.350;11.102;2023-05-07T02:28:58;13.68;;;10.95;;
27804;SDS011;15183;51.350;11.102;2023-05-07T02:31:24;13.05;;;9.82;;
27804;SDS011;15183;51.350;11.102;2023-05-07T02:33:50;13.85;;;10.30;;
27804;SDS011;15183;51.350;11.102;2023-05-07T02:36:17;14.68;;;10.55;;
27804;SDS011;15183;51.350;11.102;2023-05-07T02:38:43;16.88;;;10.65;;
27804;SDS011;15183;51.350;11.102;2023-05-07T02:41:10;15.35;;;11.20;;
27804;SDS011;15183;51.350;11.102;2023-05-07T02:43:36;15.10;;;11.63;;
27804;SDS011;15183;51.350;11.102;2023-05-07T02:46:06;15.02;;;10.55;;
27804;SDS011;15183;51.350;11.102;2023-05-07T02:48:34;14.32;;;11.20;;
27804;SDS011;15183;51.350;11.102;2023-05-07T02:51:00;13.77;;;10.52;;
27804;SDS011;15183;51.350;11.102;2023-05-07T02:53:27;14.32;;;11.00;;
27804;SDS011;15183;51.350;11.102;2023-05-07T02:55:55;14.68;;;11.00;;
27804;SDS011;15183;51.350;11.102;2023-05-07T02:58:23;14.07;;;10.52;;
27804;SDS011;15183;51.350;11.102;2023-05-07T03:00:50;12.35;;;9.93;;
27804;SDS011;15183;51.350;11.102;2023-05-07T03:03:17;15.85;;;10.73;;
27804;SDS011;15183;51.350;11.102;2023-05-07T03:05:44;15.23;;;11.30;;
27804;SDS011;15183;51.350;11.102;2023-05-07T03:08:10;14.85;;;11.25;;
27804;SDS011;15183;51.350;11.102;2023-05-07T03:10:36;15.55;;;11.70;;
27804;SDS011;15183;51.350;11.102;2023-05-07T03:13:03;15.25;;;10.77;;
27804;SDS011;15183;51.350;11.102;2023-05-07T03:15:30;15.35;;;10.95;;
27804;SDS011;15183;51.350;11.102;2023-05-07T03:17:56;18.85;;;12.57;;
27804;SDS011;15183;51.350;11.102;2023-05-07T03:20:22;15.20;;;10.77;;
27804;SDS011;15183;51.350;11.102;2023-05-07T03:22:49;17.88;;;11.40;;
27804;SDS011;15183;51.350;11.102;2023-05-07T03:25:15;18.88;;;12.27;;
27804;SDS011;15183;51.350;11.102;2023-05-07T03:27:42;15.13;;;11.20;;
27804;SDS011;15183;51.350;11.102;2023-05-07T03:30:11;15.95;;;11.70;;
27804;SDS011;15183;51.350;11.102;2023-05-07T03:32:38;17.70;;;10.85;;
27804;SDS011;15183;51.350;11.102;2023-05-07T03:35:04;15.85;;;11.85;;
27804;SDS011;15183;51.350;11.102;2023-05-07T03:37:31;15.95;;;10.98;;
27804;SDS011;15183;51.350;11.102;2023-05-07T03:39:57;14.18;;;10.15;;
27804;SDS011;15183;51.350;11.102;2023-05-07T03:42:24;13.65;;;10.40;;
27804;SDS011;15183;51.350;11.102;2023-05-07T03:44:51;14.30;;;10.43;;
27804;SDS011;15183;51.350;11.102;2023-05-07T03:47:17;13.68;;;10.38;;
27804;SDS011;15183;51.350;11.102;2023-05-07T03:49:44;18.70;;;10.77;;
27804;SDS011;15183;51.350;11.102;2023-05-07T03:52:10;16.58;;;10.80;;
27804;SDS011;15183;51.350;11.102;2023-05-07T03:54:36;16.50;;;11.55;;
27804;SDS011;15183;51.350;11.102;2023-05-07T03:57:03;16.92;;;11.02;;
27804;SDS011;15183;51.350;11.102;2023-05-07T03:59:29;15.85;;;11.10;;
27804;SDS011;15183;51.350;11.102;2023-05-07T04:01:56;15.65;;;11.18;;
27804;SDS011;15183;51.350;11.102;2023-05-07T04:04:22;15.32;;;10.85;;
27804;SDS011;15183;51.350;11.102;2023-05-07T04:06:48;18.52;;;12.73;;
27804;SDS011;15183;51.350;11.102;2023-05-07T04:09:15;19.60;;;13.20;;
27804;SDS011;15183;51.350;11.102;2023-05-07T04:11:41;17.45;;;12.30;;
27804;SDS011;15183;51.350;11.102;2023-05-07T04:14:08;19.27;;;13.23;;
27804;SDS011;15183;51.350;11.102;2023-05-07T04:16:34;19.17;;;13.00;;
27804;SDS011;15183;51.350;11.102;2023-05-07T04:19:01;19.88;;;12.55;;
27804;SDS011;15183;51.350;11.102;2023-05-07T04:21:27;17.13;;;11.98;;
27804;SDS011;15183;51.350;11.102;2023-05-07T04:23:53;18.95;;;12.57;;
27804;SDS011;15183;51.350;11.102;2023-05-07T04:26:21;22.70;;;13.45;;
27804;SDS011;15183;51.350;11.102;2023-05-07T04:28:48;21.25;;;14.40;;
27804;SDS011;15183;51.350;11.102;2023-05-07T04:31:15;19.92;;;13.98;;
27804;SDS011;15183;51.350;11.102;2023-05-07T04:33:42;22.35;;;13.73;;
27804;SDS011;15183;51.350;11.102;2023-05-07T04:36:08;21.45;;;13.07;;
27804;SDS011;15183;51.350;11.102;2023-05-07T04:38:35;18.48;;;12.75;;
27804;SDS011;15183;51.350;11.102;2023-05-07T04:41:05;20.77;;;12.45;;
27804;SDS011;15183;51.350;11.102;2023-05-07T04:43:32;17.05;;;11.70;;
27804;SDS011;15183;51.350;11.102;2023-05-07T04:45:59;20.40;;;12.25;;
27804;SDS011;15183;51.350;11.102;2023-05-07T04:48:25;16.20;;;11.68;;
27804;SDS011;15183;51.350;11.102;2023-05-07T04:50:52;20.27;;;12.30;;
27804;SDS011;15183;51.350;11.102;2023-05-07T04:53:18;15.73;;;11.95;;
27804;SDS011;15183;51.350;11.102;2023-05-07T04:55:45;17.73;;;11.20;;
27804;SDS011;15183;51.350;11.102;2023-05-07T04:58:12;16.42;;;12.30;;
27804;SDS011;15183;51.350;11.102;2023-05-07T05:00:38;17.45;;;11.18;;
27804;SDS011;15183;51.350;11.102;2023-05-07T05:03:08;14.27;;;10.93;;
27804;SDS011;15183;51.350;11.102;2023-05-07T05:05:34;18.08;;;11.48;;
27804;SDS011;15183;51.350;11.102;2023-05-07T05:08:01;13.85;;;10.52;;
27804;SDS011;15183;51.350;11.102;2023-05-07T05:10:27;14.30;;;11.38;;
27804;SDS011;15183;51.350;11.102;2023-05-07T05:12:54;13.65;;;11.07;;
27804;SDS011;15183;51.350;11.102;2023-05-07T05:15:20;16.40;;;11.38;;
27804;SDS011;15183;51.350;11.102;2023-05-07T05:17:47;17.08;;;10.48;;
27804;SDS011;15183;51.350;11.102;2023-05-07T05:20:13;14.35;;;10.23;;
27804;SDS011;15183;51.350;11.102;2023-05-07T05:22:40;14.60;;;11.13;;
27804;SDS011;15183;51.350;11.102;2023-05-07T05:25:07;14.88;;;10.75;;
27804;SDS011;15183;51.350;11.102;2023-05-07T05:27:34;14.30;;;10.73;;
27804;SDS011;15183;51.350;11.102;2023-05-07T05:30:01;14.27;;;10.98;;
27804;SDS011;15183;51.350;11.102;2023-05-07T05:32:28;14.90;;;10.95;;
27804;SDS011;15183;51.350;11.102;2023-05-07T05:34:55;16.80;;;11.20;;
27804;SDS011;15183;51.350;11.102;2023-05-07T05:37:21;15.10;;;10.90;;
27804;SDS011;15183;51.350;11.102;2023-05-07T05:39:48;16.27;;;12.50;;
27804;SDS011;15183;51.350;11.102;2023-05-07T05:42:14;14.95;;;10.63;;
27804;SDS011;15183;51.350;11.102;2023-05-07T05:44:41;15.48;;;11.38;;
27804;SDS011;15183;51.350;11.102;2023-05-07T05:47:07;13.23;;;10.02;;
27804;SDS011;15183;51.350;11.102;2023-05-07T05:49:33;16.83;;;11.40;;
27804;SDS011;15183;51.350;11.102;2023-05-07T05:52:00;15.13;;;11.35;;
27804;SDS011;15183;51.350;11.102;2023-05-07T05:54:27;14.80;;;11.75;;
27804;SDS011;15183;51.350;11.102;2023-05-07T05:56:53;19.20;;;13.63;;
27804;SDS011;15183;51.350;11.102;2023-05-07T05:59:20;16.05;;;11.63;;
27804;SDS011;15183;51.350;11.102;2023-05-07T06:01:47;20.58;;;13.35;;
27804;SDS011;15183;51.350;11.102;2023-05-07T06:04:13;17.83;;;12.23;;
27804;SDS011;15183;51.350;11.102;2023-05-07T06:06:39;19.88;;;13.27;;
27804;SDS011;15183;51.350;11.102;2023-05-07T06:09:06;21.77;;;13.73;;
27804;SDS011;15183;51.350;11.102;2023-05-07T06:11:32;19.00;;;13.27;;
27804;SDS011;15183;51.350;11.102;2023-05-07T06:13:59;15.98;;;12.25;;
27804;SDS011;15183;51.350;11.102;2023-05-07T06:16:25;16.67;;;13.10;;
27804;SDS011;15183;51.350;11.102;2023-05-07T06:18:51;19.08;;;12.32;;
27804;SDS011;15183;51.350;11.102;2023-05-07T06:21:18;17.77;;;12.88;;
27804;SDS011;15183;51.350;11.102;2023-05-07T06:23:45;17.25;;;12.98;;
27804;SDS011;15183;51.350;11.102;2023-05-07T06:26:11;16.67;;;12.27;;
27804;SDS011;15183;51.350;11.102;2023-05-07T06:28:37;19.95;;;13.75;;
27804;SDS011;15183;51.350;11.102;2023-05-07T06:31:13;18.20;;;12.80;;
27804;SDS011;15183;51.350;11.102;2023-05-07T06:33:42;20.25;;;13.20;;
27804;SDS011;15183;51.350;11.102;2023-05-07T06:36:10;20.65;;;13.90;;
27804;SDS011;15183;51.350;11.102;2023-05-07T06:38:36;17.02;;;13.57;;
27804;SDS011;15183;51.350;11.102;2023-05-07T06:41:03;19.83;;;13.85;;
27804;SDS011;15183;51.350;11.102;2023-05-07T06:43:31;21.83;;;14.90;;
27804;SDS011;15183;51.350;11.102;2023-05-07T06:45:57;20.25;;;14.23;;
27804;SDS011;15183;51.350;11.102;2023-05-07T06:48:24;22.95;;;14.63;;
27804;SDS011;15183;51.350;11.102;2023-05-07T06:50:51;18.10;;;14.48;;
27804;SDS011;15183;51.350;11.102;2023-05-07T06:53:17;24.55;;;16.33;;
27804;SDS011;15183;51.350;11.102;2023-05-07T06:55:43;23.10;;;15.50;;
27804;SDS011;15183;51.350;11.102;2023-05-07T06:58:10;20.58;;;14.80;;
27804;SDS011;15183;51.350;11.102;2023-05-07T07:00:36;22.67;;;16.83;;
27804;SDS011;15183;51.350;11.102;2023-05-07T07:03:03;23.00;;;15.95;;
27804;SDS011;15183;51.350;11.102;2023-05-07T07:05:29;23.67;;;16.70;;
27804;SDS011;15183;51.350;11.102;2023-05-07T07:07:55;22.65;;;16.00;;
27804;SDS011;15183;51.350;11.102;2023-05-07T07:10:22;24.92;;;16.80;;
27804;SDS011;15183;51.350;11.102;2023-05-07T07:12:48;21.17;;;15.70;;
27804;SDS011;15183;51.350;11.102;2023-05-07T07:15:15;23.33;;;17.55;;
27804;SDS011;15183;51.350;11.102;2023-05-07T07:17:42;22.30;;;16.42;;
27804;SDS011;15183;51.350;11.102;2023-05-07T07:20:09;24.65;;;17.33;;
27804;SDS011;15183;51.350;11.102;2023-05-07T07:22:35;22.33;;;16.48;;
27804;SDS011;15183;51.350;11.102;2023-05-07T07:25:02;21.67;;;16.85;;
27804;SDS011;15183;51.350;11.102;2023-05-07T07:27:29;22.73;;;16.83;;
27804;SDS011;15183;51.350;11.102;2023-05-07T07:29:55;22.05;;;16.42;;
27804;SDS011;15183;51.350;11.102;2023-05-07T07:32:22;21.85;;;16.30;;
27804;SDS011;15183;51.350;11.102;2023-05-07T07:34:48;20.08;;;15.13;;
27804;SDS011;15183;51.350;11.102;2023-05-07T07:37:14;22.30;;;16.33;;
27804;SDS011;15183;51.350;11.102;2023-05-07T07:39:41;22.90;;;16.23;;
27804;SDS011;15183;51.350;11.102;2023-05-07T07:42:07;19.38;;;15.73;;
27804;SDS011;15183;51.350;11.102;2023-05-07T07:44:34;24.38;;;17.10;;
27804;SDS011;15183;51.350;11.102;2023-05-07T07:47:00;21.77;;;16.08;;
27804;SDS011;15183;51.350;11.102;2023-05-07T07:49:26;19.80;;;14.77;;
27804;SDS011;15183;51.350;11.102;2023-05-07T07:51:53;28.35;;;16.27;;
27804;SDS011;15183;51.350;11.102;2023-05-07T07:54:19;21.63;;;15.38;;
27804;SDS011;15183;51.350;11.102;2023-05-07T07:56:46;18.95;;;14.30;;
27804;SDS011;15183;51.350;11.102;2023-05-07T07:59:12;19.42;;;14.75;;
27804;SDS011;15183;51.350;11.102;2023-05-07T08:01:43;22.17;;;16.27;;
27804;SDS011;15183;51.350;11.102;2023-05-07T08:04:09;22.70;;;15.10;;
27804;SDS011;15183;51.350;11.102;2023-05-07T08:06:36;21.33;;;15.57;;
27804;SDS011;15183;51.350;11.102;2023-05-07T08:09:03;20.88;;;16.48;;
27804;SDS011;15183;51.350;11.102;2023-05-07T08:11:29;21.65;;;15.02;;
27804;SDS011;15183;51.350;11.102;2023-05-07T08:13:56;21.65;;;15.38;;
27804;SDS011;15183;51.350;11.102;2023-05-07T08:16:22;19.45;;;14.40;;
27804;SDS011;15183;51.350;11.102;2023-05-07T08:18:49;21.67;;;15.05;;
27804;SDS011;15183;51.350;11.102;2023-05-07T08:21:15;23.52;;;18.02;;
27804;SDS011;15183;51.350;11.102;2023-05-07T08:23:41;28.73;;;19.65;;
27804;SDS011;15183;51.350;11.102;2023-05-07T08:26:08;25.80;;;17.45;;
27804;SDS011;15183;51.350;11.102;2023-05-07T08:28:35;20.65;;;16.10;;
27804;SDS011;15183;51.350;11.102;2023-05-07T08:31:01;18.55;;;14.07;;
27804;SDS011;15183;51.350;11.102;2023-05-07T08:33:27;21.10;;;14.20;;
27804;SDS011;15183;51.350;11.102;2023-05-07T08:35:54;25.23;;;16.90;;
27804;SDS011;15183;51.350;11.102;2023-05-07T08:38:20;29.65;;;20.38;;
27804;SDS011;15183;51.350;11.102;2023-05-07T08:40:47;22.80;;;16.55;;
27804;SDS011;15183;51.350;11.102;2023-05-07T08:43:13;18.77;;;15.38;;
27804;SDS011;15183;51.350;11.102;2023-05-07T08:45:40;23.25;;;15.20;;
27804;SDS011;15183;51.350;11.102;2023-05-07T08:48:14;18.67;;;14.38;;
27804;SDS011;15183;51.350;11.102;2023-05-07T08:50:42;21.25;;;13.93;;
27804;SDS011;15183;51.350;11.102;2023-05-07T08:53:08;17.40;;;12.73;;
27804;SDS011;15183;51.350;11.102;2023-05-07T08:55:35;15.18;;;11.48;;
27804;SDS011;15183;51.350;11.102;2023-05-07T08:58:01;17.02;;;12.10;;
27804;SDS011;15183;51.350;11.102;2023-05-07T09:00:28;16.92;;;12.93;;
27804;SDS011;15183;51.350;11.102;2023-05-07T09:02:54;15.15;;;10.95;;
27804;SDS011;15183;51.350;11.102;2023-05-07T09:05:21;17.08;;;13.15;;
27804;SDS011;15183;51.350;11.102;2023-05-07T09:07:47;17.63;;;13.40;;
27804;SDS011;15183;51.350;11.102;2023-05-07T09:10:14;17.98;;;13.27;;
27804;SDS011;15183;51.350;11.102;2023-05-07T09:12:41;17.95;;;13.23;;
27804;SDS011;15183;51.350;11.102;2023-05-07T09:15:07;21.10;;;15.80;;
27804;SDS011;15183;51.350;11.102;2023-05-07T09:17:34;20.77;;;14.85;;
27804;SDS011;15183;51.350;11.102;2023-05-07T09:20:04;22.70;;;15.60;;
27804;SDS011;15183;51.350;11.102;2023-05-07T09:22:32;19.92;;;15.00;;
27804;SDS011;15183;51.350;11.102;2023-05-07T09:24:59;18.80;;;14.27;;
27804;SDS011;15183;51.350;11.102;2023-05-07T09:27:26;20.10;;;14.88;;
27804;SDS011;15183;51.350;11.102;2023-05-07T09:29:53;19.23;;;13.38;;
27804;SDS011;15183;51.350;11.102;2023-05-07T09:32:19;16.33;;;13.07;;
27804;SDS011;15183;51.350;11.102;2023-05-07T09:34:45;18.02;;;13.80;;
27804;SDS011;15183;51.350;11.102;2023-05-07T09:37:13;16.15;;;13.07;;
27804;SDS011;15183;51.350;11.102;2023-05-07T09:39:42;19.48;;;14.27;;
27804;SDS011;15183;51.350;11.102;2023-05-07T09:42:10;15.70;;;12.98;;
27804;SDS011;15183;51.350;11.102;2023-05-07T09:44:41;16.27;;;11.77;;
27804;SDS011;15183;51.350;11.102;2023-05-07T09:47:09;13.75;;;10.32;;
27804;SDS011;15183;51.350;11.102;2023-05-07T09:49:37;17.70;;;12.00;;
27804;SDS011;15183;51.350;11.102;2023-05-07T09:52:07;15.13;;;11.82;;
27804;SDS011;15183;51.350;11.102;2023-05-07T09:54:36;15.10;;;11.43;;
27804;SDS011;15183;51.350;11.102;2023-05-07T09:57:05;14.55;;;11.18;;
27804;SDS011;15183;51.350;11.102;2023-05-07T09:59:35;20.17;;;12.10;;
27804;SDS011;15183;51.350;11.102;2023-05-07T10:02:04;14.73;;;10.82;;
27804;SDS011;15183;51.350;11.102;2023-05-07T10:04:31;13.75;;;10.63;;
27804;SDS011;15183;51.350;11.102;2023-05-07T10:06:59;13.32;;;10.38;;
27804;SDS011;15183;51.350;11.102;2023-05-07T10:09:26;14.13;;;11.38;;
27804;SDS011;15183;51.350;11.102;2023-05-07T10:11:52;16.05;;;11.65;;
27804;SDS011;15183;51.350;11.102;2023-05-07T10:14:20;14.93;;;11.57;;
27804;SDS011;15183;51.350;11.102;2023-05-07T10:16:47;17.02;;;11.35;;
27804;SDS011;15183;51.350;11.102;2023-05-07T10:19:14;15.13;;;11.50;;
27804;SDS011;15183;51.350;11.102;2023-05-07T10:21:48;15.63;;;11.88;;
27804;SDS011;15183;51.350;11.102;2023-05-07T10:24:25;15.00;;;11.48;;
27804;SDS011;15183;51.350;11.102;2023-05-07T10:27:00;14.55;;;10.80;;
27804;SDS011;15183;51.350;11.102;2023-05-07T10:35:16;13.43;;;10.65;;
27804;SDS011;15183;51.350;11.102;2023-05-07T10:37:47;18.52;;;12.35;;
27804;SDS011;15183;51.350;11.102;2023-05-07T10:40:14;13.73;;;11.25;;
27804;SDS011;15183;51.350;11.102;2023-05-07T10:42:56;12.48;;;10.52;;
27804;SDS011;15183;51.350;11.102;2023-05-07T10:45:28;13.25;;;11.13;;
27804;SDS011;15183;51.350;11.102;2023-05-07T10:48:07;15.13;;;11.80;;
27804;SDS011;15183;51.350;11.102;2023-05-07T10:50:38;13.90;;;10.73;;
27804;SDS011;15183;51.350;11.102;2023-05-07T10:55:46;15.60;;;11.82;;
27804;SDS011;15183;51.350;11.102;2023-05-07T11:00:47;20.13;;;13.45;;
27804;SDS011;15183;51.350;11.102;2023-05-07T11:03:14;13.23;;;11.02;;
27804;SDS011;15183;51.350;11.102;2023-05-07T11:05:41;12.80;;;10.40;;
27804;SDS011;15183;51.350;11.102;2023-05-07T11:08:08;11.73;;;10.27;;
27804;SDS011;15183;51.350;11.102;2023-05-07T11:10:51;14.38;;;10.65;;
27804;SDS011;15183;51.350;11.102;2023-05-07T11:16:25;11.50;;;9.45;;
27804;SDS011;15183;51.350;11.102;2023-05-07T11:18:54;10.95;;;8.85;;
27804;SDS011;15183;51.350;11.102;2023-05-07T11:24:04;8.70;;;7.50;;
27804;SDS011;15183;51.350;11.102;2023-05-07T11:26:53;10.00;;;7.97;;
27804;SDS011;15183;51.350;11.102;2023-05-07T11:29:20;10.95;;;8.43;;
27804;SDS011;15183;51.350;11.102;2023-05-07T11:31:53;11.90;;;9.38;;
27804;SDS011;15183;51.350;11.102;2023-05-07T11:34:24;10.60;;;8.80;;
27804;SDS011;15183;51.350;11.102;2023-05-07T11:36:52;10.40;;;8.50;;
27804;SDS011;15183;51.350;11.102;2023-05-07T11:39:29;11.32;;;8.70;;
27804;SDS011;15183;51.350;11.102;2023-05-07T11:41:59;8.38;;;7.55;;
27804;SDS011;15183;51.350;11.102;2023-05-07T11:44:39;11.18;;;9.40;;
27804;SDS011;15183;51.350;11.102;2023-05-07T11:47:10;7.72;;;6.95;;
27804;SDS011;15183;51.350;11.102;2023-05-07T11:49:37;14.15;;;9.90;;
27804;SDS011;15183;51.350;11.102;2023-05-07T11:52:03;7.72;;;6.93;;
27804;SDS011;15183;51.350;11.102;2023-05-07T11:54:36;7.68;;;6.60;;
27804;SDS011;15183;51.350;11.102;2023-05-07T11:57:03;8.00;;;7.20;;
27804;SDS011;15183;51.350;11.102;2023-05-07T11:59:29;7.32;;;6.63;;
27804;SDS011;15183;51.350;11.102;2023-05-07T12:01:57;7.00;;;6.30;;
27804;SDS011;15183;51.350;11.102;2023-05-07T12:04:24;6.75;;;6.15;;
27804;SDS011;15183;51.350;11.102;2023-05-07T12:06:54;6.90;;;6.20;;
27804;SDS011;15183;51.350;11.102;2023-05-07T12:09:21;6.18;;;5.55;;
27804;SDS011;15183;51.350;11.102;2023-05-07T12:11:47;6.20;;;5.60;;
27804;SDS011;15183;51.350;11.102;2023-05-07T12:14:14;6.57;;;5.88;;
27804;SDS011;15183;51.350;11.102;2023-05-07T12:16:43;6.38;;;5.78;;
27804;SDS011;15183;51.350;11.102;2023-05-07T12:19:10;5.75;;;5.15;;
27804;SDS011;15183;51.350;11.102;2023-05-07T12:21:40;6.80;;;5.90;;
27804;SDS011;15183;51.350;11.102;2023-05-07T12:24:07;5.70;;;4.95;;
27804;SDS011;15183;51.350;11.102;2023-05-07T12:26:37;6.63;;;5.72;;
27804;SDS011;15183;51.350;11.102;2023-05-07T12:29:06;6.55;;;5.70;;
27804;SDS011;15183;51.350;11.102;2023-05-07T12:31:33;7.03;;;6.30;;
27804;SDS011;15183;51.350;11.102;2023-05-07T12:33:59;6.25;;;5.65;;
27804;SDS011;15183;51.350;11.102;2023-05-07T12:36:26;7.22;;;6.07;;
27804;SDS011;15183;51.350;11.102;2023-05-07T12:39:01;6.68;;;5.82;;
27804;SDS011;15183;51.350;11.102;2023-05-07T12:41:29;7.70;;;5.85;;
27804;SDS011;15183;51.350;11.102;2023-05-07T12:43:56;7.72;;;6.03;;
27804;SDS011;15183;51.350;11.102;2023-05-07T12:46:23;8.18;;;5.22;;
27804;SDS011;15183;51.350;11.102;2023-05-07T12:48:52;5.78;;;5.18;;
27804;SDS011;15183;51.350;11.102;2023-05-07T12:51:19;5.97;;;5.15;;
27804;SDS011;15183;51.350;11.102;2023-05-07T12:53:45;5.55;;;5.05;;
27804;SDS011;15183;51.350;11.102;2023-05-07T12:56:12;8.10;;;6.72;;
27804;SDS011;15183;51.350;11.102;2023-05-07T12:58:41;6.22;;;5.63;;
27804;SDS011;15183;51.350;11.102;2023-05-07T13:01:08;5.60;;;5.10;;
27804;SDS011;15183;51.350;11.102;2023-05-07T13:03:35;5.90;;;4.88;;
27804;SDS011;15183;51.350;11.102;2023-05-07T13:06:07;6.28;;;5.68;;
27804;SDS011;15183;51.350;11.102;2023-05-07T13:08:36;5.90;;;5.32;;
27804;SDS011;15183;51.350;11.102;2023-05-07T13:11:11;5.90;;;5.30;;
27804;SDS011;15183;51.350;11.102;2023-05-07T13:13:39;7.60;;;5.80;;
27804;SDS011;15183;51.350;11.102;2023-05-07T13:16:08;6.13;;;5.00;;
27804;SDS011;15183;51.350;11.102;2023-05-07T13:18:37;6.82;;;5.53;;
27804;SDS011;15183;51.350;11.102;2023-05-07T13:21:05;5.25;;;4.75;;
27804;SDS011;15183;51.350;11.102;2023-05-07T13:23:32;5.68;;;5.18;;
27804;SDS011;15183;51.350;11.102;2023-05-07T13:25:58;6.00;;;5.07;;
27804;SDS011;15183;51.350;11.102;2023-05-07T13:28:24;6.03;;;5.28;;
27804;SDS011;15183;51.350;11.102;2023-05-07T13:30:52;6.25;;;5.60;;
27804;SDS011;15183;51.350;11.102;2023-05-07T13:33:20;5.57;;;5.00;;
27804;SDS011;15183;51.350;11.102;2023-05-07T13:35:46;4.88;;;4.38;;
27804;SDS011;15183;51.350;11.102;2023-05-07T13:38:12;5.30;;;4.80;;
27804;SDS011;15183;51.350;11.102;2023-05-07T13:40:41;5.57;;;4.85;;
27804;SDS011;15183;51.350;11.102;2023-05-07T13:43:07;5.13;;;4.60;;
27804;SDS011;15183;51.350;11.102;2023-05-07T13:45:34;4.95;;;4.47;;
27804;SDS011;15183;51.350;11.102;2023-05-07T13:48:00;4.78;;;4.28;;
27804;SDS011;15183;51.350;11.102;2023-05-07T13:50:27;3.90;;;3.60;;
27804;SDS011;15183;51.350;11.102;2023-05-07T13:52:55;4.82;;;4.00;;
27804;SDS011;15183;51.350;11.102;2023-05-07T13:55:22;4.57;;;3.88;;
27804;SDS011;15183;51.350;11.102;2023-05-07T13:57:56;4.20;;;3.80;;
27804;SDS011;15183;51.350;11.102;2023-05-07T14:00:27;5.10;;;4.50;;
27804;SDS011;15183;51.350;11.102;2023-05-07T14:02:55;4.82;;;4.32;;
27804;SDS011;15183;51.350;11.102;2023-05-07T14:05:23;4.47;;;4.07;;
27804;SDS011;15183;51.350;11.102;2023-05-07T14:07:50;4.20;;;3.67;;
27804;SDS011;15183;51.350;11.102;2023-05-07T14:10:18;4.82;;;3.88;;
27804;SDS011;15183;51.350;11.102;2023-05-07T14:12:45;3.95;;;3.60;;
27804;SDS011;15183;51.350;11.102;2023-05-07T14:15:12;4.90;;;4.40;;
27804;SDS011;15183;51.350;11.102;2023-05-07T14:17:39;4.88;;;4.22;;
27804;SDS011;15183;51.350;11.102;2023-05-07T14:20:05;4.90;;;4.40;;
27804;SDS011;15183;51.350;11.102;2023-05-07T14:22:32;4.90;;;4.43;;
27804;SDS011;15183;51.350;11.102;2023-05-07T14:24:59;5.25;;;4.35;;
27804;SDS011;15183;51.350;11.102;2023-05-07T14:27:25;5.13;;;4.22;;
27804;SDS011;15183;51.350;11.102;2023-05-07T14:29:52;6.20;;;4.85;;
27804;SDS011;15183;51.350;11.102;2023-05-07T14:32:18;7.45;;;6.65;;
27804;SDS011;15183;51.350;11.102;2023-05-07T14:34:45;8.20;;;5.80;;